createdAt,value
2018-09-03T06:48:14.140Z,15.60
2018-09-03T06:50:44.574Z,15.70
2018-09-03T06:53:15.591Z,15.70
2018-09-03T06:55:46.850Z,15.70
2018-09-03T06:58:17.442Z,15.70
2018-09-03T07:00:50.120Z,15.80
2018-09-03T07:03:21.412Z,15.80
2018-09-03T07:19:55.057Z,15.90
2018-09-03T07:22:26.120Z,16.10
2018-09-03T07:24:56.898Z,16.20
2018-09-03T07:27:28.626Z,16.30
2018-09-03T07:30:00.532Z,16.40
2018-09-03T07:32:31.591Z,16.50
2018-09-03T07:35:02.609Z,16.50
2018-09-03T07:37:34.503Z,16.50
2018-09-03T07:40:06.894Z,16.50
2018-09-03T07:42:38.014Z,16.50
2018-09-03T07:45:09.124Z,16.40
2018-09-03T07:55:34.663Z,16.40
2018-09-03T07:58:06.728Z,16.50
2018-09-03T08:00:38.026Z,16.80
2018-09-03T08:03:09.290Z,17.00
2018-09-03T08:05:41.130Z,17.20
2018-09-03T08:08:12.360Z,17.40
2018-09-03T08:10:43.548Z,17.50
2018-09-03T08:13:19.992Z,17.50
2018-09-03T08:15:51.927Z,17.60
2018-09-03T08:18:23.003Z,17.60
2018-09-03T08:20:54.077Z,17.70
2018-09-03T08:23:25.783Z,17.80
2018-09-03T08:25:57.432Z,17.80
2018-09-03T08:28:28.628Z,17.90
2018-09-03T08:30:59.824Z,18.10
2018-09-03T08:33:31.408Z,18.30
2018-09-03T08:36:04.293Z,18.40
2018-09-03T08:38:34.997Z,18.50
2018-09-03T08:41:06.252Z,18.70
2018-09-03T08:43:38.119Z,18.70
2018-09-03T08:46:09.755Z,18.70
2018-09-03T08:48:40.737Z,18.70
2018-09-03T08:51:12.141Z,18.70
2018-09-03T08:53:44.195Z,18.60
2018-09-03T08:56:15.461Z,18.60
2018-09-03T08:58:46.489Z,18.50
2018-09-03T09:01:17.559Z,18.50
2018-09-03T09:03:49.503Z,18.50
2018-09-03T09:06:20.651Z,18.40
2018-09-03T09:08:51.867Z,18.30
2018-09-03T09:11:23.792Z,18.20
2018-09-03T09:13:55.565Z,18.10
2018-09-03T09:16:26.595Z,18.00
2018-09-03T09:18:57.578Z,17.90
2018-09-03T09:21:29.418Z,17.80
2018-09-03T09:24:01.071Z,17.60
2018-09-03T09:26:33.564Z,17.50
2018-09-03T09:29:04.652Z,17.40
2018-09-03T09:31:37.379Z,17.40
2018-09-03T09:34:08.753Z,17.40
2018-09-03T09:36:39.915Z,17.40
2018-09-03T09:39:11.255Z,17.50
2018-09-03T09:41:43.018Z,17.70
2018-09-03T09:44:14.798Z,17.90
2018-09-03T09:46:45.845Z,18.10
2018-09-03T09:49:17.568Z,18.30
2018-09-03T09:51:49.706Z,18.50
2018-09-03T09:54:20.814Z,18.60
2018-09-03T09:56:51.766Z,18.60
2018-09-03T09:59:23.867Z,18.60
2018-09-03T10:01:55.482Z,18.60
2018-09-03T10:04:26.588Z,18.50
2018-09-03T10:06:57.774Z,18.50
2018-09-03T10:09:29.604Z,18.50
2018-09-03T10:12:01.913Z,18.50
2018-09-03T10:14:33.084Z,18.50
2018-09-03T10:17:04.249Z,18.40
2018-09-03T10:19:40.974Z,18.40
2018-09-03T10:22:13.094Z,18.30
2018-09-03T10:24:44.200Z,18.20
2018-09-03T10:27:16.091Z,18.10
2018-09-03T10:29:47.874Z,18.00
2018-09-03T10:32:20.136Z,17.90
2018-09-03T10:34:51.408Z,17.90
2018-09-03T10:37:23.197Z,17.90
2018-09-03T10:39:54.980Z,17.90
2018-09-03T10:42:27.543Z,17.90
2018-09-03T10:44:58.667Z,18.00
2018-09-03T10:47:30.640Z,18.00
2018-09-03T10:50:02.607Z,18.10
2018-09-03T10:52:33.764Z,18.10
2018-09-03T10:55:06.381Z,18.10
2018-09-03T10:57:38.265Z,18.20
2018-09-03T11:00:09.668Z,18.30
2018-09-03T11:02:40.621Z,18.40
2018-09-03T11:05:12.202Z,18.60
2018-09-03T11:07:44.657Z,18.70
2018-09-03T11:10:16.077Z,18.90
2018-09-03T11:12:47.230Z,19.10
2018-09-03T11:15:19.332Z,19.20
2018-09-03T11:17:51.066Z,19.20
2018-09-03T11:20:30.210Z,19.30
2018-09-03T11:23:01.346Z,19.40
2018-09-03T11:25:34.318Z,19.50
2018-09-03T11:28:06.207Z,19.60
2018-09-03T11:30:37.051Z,19.70
2018-09-03T11:33:08.295Z,20.00
2018-09-03T11:35:40.217Z,20.20
2018-09-03T11:38:11.918Z,20.20
2018-09-03T11:40:42.782Z,20.10
2018-09-03T11:43:14.083Z,20.10
2018-09-03T11:45:45.559Z,20.40
2018-09-03T11:48:16.450Z,20.70
2018-09-03T11:50:47.443Z,20.80
2018-09-03T11:53:19.236Z,20.70
2018-09-03T11:55:50.844Z,20.60
2018-09-03T11:58:23.407Z,20.50
2018-09-03T12:00:58.602Z,20.60
2018-09-03T12:03:30.193Z,20.70
2018-09-03T12:06:02.002Z,20.80
2018-09-03T12:08:32.917Z,21.00
2018-09-03T12:11:04.114Z,21.30
2018-09-03T12:13:36.029Z,21.70
2018-09-03T12:16:15.759Z,22.00
2018-09-03T12:18:47.243Z,22.10
2018-09-03T12:21:18.904Z,22.20
2018-09-03T12:23:50.781Z,22.40
2018-09-03T12:26:21.730Z,22.20
2018-09-03T12:28:52.654Z,22.00
2018-09-03T12:31:24.395Z,21.80
2018-09-03T12:33:56.189Z,21.60
2018-09-03T12:36:27.254Z,21.50
2018-09-03T12:38:58.255Z,21.40
2018-09-03T12:41:29.955Z,21.30
2018-09-03T12:44:02.130Z,21.00
2018-09-03T12:46:33.204Z,20.90
2018-09-03T12:49:04.058Z,20.80
2018-09-03T12:51:35.800Z,20.80
2018-09-03T12:54:07.594Z,20.80
2018-09-03T12:56:38.466Z,20.90
2018-09-03T12:59:11.092Z,20.90
2018-09-03T13:01:42.899Z,21.00
2018-09-03T13:04:14.474Z,21.00
2018-09-03T13:06:45.813Z,21.00
2018-09-03T13:09:17.745Z,21.00
2018-09-03T13:11:49.861Z,20.90
2018-09-03T13:14:21.319Z,20.80
2018-09-03T13:16:52.411Z,20.80
2018-09-03T13:19:31.886Z,20.70
2018-09-03T13:22:03.522Z,20.50
2018-09-03T13:24:34.678Z,20.50
2018-09-03T13:27:06.499Z,20.50
2018-09-03T13:29:38.274Z,20.40
2018-09-03T13:32:13.613Z,20.40
2018-09-03T13:34:46.325Z,20.30
2018-09-03T13:37:19.812Z,20.30
2018-09-03T13:39:51.643Z,20.30
2018-09-03T13:42:22.742Z,20.30
2018-09-03T13:44:54.432Z,20.20
2018-09-03T13:47:27.077Z,20.20
2018-09-03T13:49:58.945Z,20.20
2018-09-03T13:52:31.135Z,20.20
2018-09-03T13:55:02.601Z,20.20
2018-09-03T13:57:35.359Z,20.20
2018-09-03T14:00:09.998Z,20.20
2018-09-03T14:02:48.256Z,20.10
2018-09-03T14:05:20.446Z,20.20
2018-09-03T14:07:54.671Z,20.20
2018-09-03T14:10:26.689Z,20.20
2018-09-03T14:12:58.953Z,20.20
2018-09-03T14:15:30.617Z,20.30
2018-09-03T14:18:06.831Z,20.30
2018-09-03T14:20:37.879Z,20.40
2018-09-03T14:23:08.813Z,20.50
2018-09-03T14:25:40.585Z,20.50
2018-09-03T14:28:11.791Z,20.50
2018-09-03T14:30:42.789Z,20.70
2018-09-03T14:33:13.725Z,20.80
2018-09-03T14:35:46.146Z,20.80
2018-09-03T14:38:17.236Z,20.80
2018-09-03T14:40:48.169Z,20.90
2018-09-03T14:43:19.706Z,20.90
2018-09-03T14:45:51.626Z,20.90
2018-09-03T14:48:24.068Z,20.90
2018-09-03T14:50:55.023Z,20.80
2018-09-03T14:53:26.983Z,20.90
2018-09-03T14:55:58.839Z,20.80
2018-09-03T14:58:29.881Z,20.80
2018-09-03T15:01:00.996Z,20.70
2018-09-03T15:03:33.111Z,20.70
2018-09-03T15:06:06.599Z,20.60
2018-09-03T15:08:38.092Z,20.60
2018-09-03T15:11:09.343Z,20.60
2018-09-03T15:13:41.812Z,20.70
2018-09-03T15:16:13.075Z,21.00
2018-09-03T15:18:44.029Z,21.30
2018-09-03T15:21:15.132Z,21.80
2018-09-03T15:23:47.187Z,22.10
2018-09-03T15:26:20.124Z,22.40
2018-09-03T15:28:51.160Z,22.70
2018-09-03T15:31:23.652Z,23.00
2018-09-03T15:33:55.942Z,23.10
2018-09-03T15:36:28.211Z,23.20
2018-09-03T15:38:59.340Z,23.10
2018-09-03T15:41:31.188Z,22.90
2018-09-03T15:44:02.976Z,22.70
2018-09-03T15:46:34.147Z,22.60
2018-09-03T15:49:06.678Z,22.50
2018-09-03T15:51:38.970Z,22.30
2018-09-03T15:54:11.051Z,22.20
2018-09-03T15:56:42.239Z,22.10
2018-09-03T15:59:13.129Z,22.10
2018-09-03T16:01:44.975Z,22.00
2018-09-03T16:04:17.637Z,21.90
2018-09-03T16:06:48.586Z,21.80
2018-09-03T16:09:20.592Z,21.70
2018-09-03T16:11:52.612Z,21.60
2018-09-03T16:14:23.616Z,21.40
2018-09-03T16:16:54.806Z,21.30
2018-09-03T16:19:26.468Z,21.10
2018-09-03T16:21:58.507Z,20.90
2018-09-03T16:24:31.860Z,20.80
2018-09-03T16:27:04.184Z,20.70
2018-09-03T16:29:35.962Z,20.50
2018-09-03T16:32:07.493Z,20.40
2018-09-03T16:34:38.562Z,20.30
2018-09-03T16:37:09.787Z,20.20
2018-09-03T16:39:41.342Z,20.20
2018-09-03T16:42:13.180Z,20.10
2018-09-03T16:44:44.002Z,20.10
2018-09-03T16:47:16.630Z,20.00
2018-09-03T16:49:48.220Z,20.00
2018-09-03T16:52:20.432Z,19.90
2018-09-03T16:54:51.648Z,19.70
2018-09-03T16:57:23.421Z,19.60
2018-09-03T16:59:57.064Z,19.60
2018-09-03T17:02:29.265Z,19.50
2018-09-03T17:05:01.437Z,19.40
2018-09-03T17:07:34.209Z,19.30
2018-09-03T17:10:06.448Z,19.10
2018-09-03T17:12:37.641Z,19.00
2018-09-03T17:15:08.707Z,18.90
2018-09-03T17:17:40.411Z,18.70
2018-09-03T17:20:13.096Z,18.60
2018-09-03T17:22:44.539Z,18.50
2018-09-03T17:25:15.556Z,18.30
2018-09-03T17:27:47.584Z,18.20
2018-09-03T17:30:20.529Z,18.00
2018-09-03T17:32:51.641Z,17.90
2018-09-03T17:35:23.254Z,17.80
2018-09-03T17:37:55.178Z,17.70
2018-09-03T17:40:26.328Z,17.50
2018-09-03T17:42:57.833Z,17.30
2018-09-03T17:45:29.523Z,17.20
2018-09-03T17:48:01.356Z,17.10
2018-09-03T17:50:32.191Z,17.00
2018-09-03T17:53:03.246Z,16.90
2018-09-03T17:55:35.144Z,16.80
2018-09-03T17:58:07.191Z,16.70
2018-09-03T18:00:38.299Z,16.50
2018-09-03T18:03:11.197Z,16.50
2018-09-03T18:05:42.952Z,16.50
2018-09-03T18:08:15.399Z,16.40
2018-09-03T18:10:46.662Z,16.40
2018-09-03T18:13:19.365Z,16.30
2018-09-03T18:15:52.027Z,16.30
2018-09-03T18:18:23.300Z,16.20
2018-09-03T18:20:54.463Z,16.00
2018-09-03T18:23:27.191Z,16.00
2018-09-03T18:25:58.910Z,15.90
2018-09-03T18:28:30.040Z,15.80
2018-09-03T18:31:01.460Z,15.70
2018-09-03T18:33:34.892Z,15.70
2018-09-03T18:36:06.933Z,15.70
2018-09-03T18:38:38.052Z,15.60
2018-09-03T18:41:11.378Z,15.60
2018-09-03T18:43:43.193Z,15.60
2018-09-03T18:46:15.076Z,15.60
2018-09-03T18:48:46.001Z,15.60
2018-09-03T18:51:17.556Z,15.60
2018-09-03T18:53:49.742Z,15.50
2018-09-03T18:56:20.932Z,15.50
2018-09-03T18:58:51.898Z,15.50
2018-09-03T19:01:24.485Z,15.40
2018-09-03T19:03:56.567Z,15.40
2018-09-03T19:06:27.186Z,15.40
2018-09-03T19:08:57.661Z,15.40
2018-09-03T19:11:28.778Z,15.40
2018-09-03T19:14:00.422Z,15.30
2018-09-03T19:16:30.896Z,15.30
